Estació meteorològica de Bellmunt (Osona, Osona)

Consulta les dades en temps real de l'estació meteorològica de Bellmunt





Hora UTC 04:00
Temperatura 16.7 ºC
Humitat 73.0 %
Pressió 1015.3 hPa
Pluja 0.0 mm
Velocitat vent 0.0 km/h
Direcció vent ESE

Dades diàries 2026-09-02



Hora UTC (hivern +1h; estiu +2h)
Temperatura (ºC) Humitat (%) Pressió (hPa) Velocitat vent (km/h) Precipitació (mm)
Hora UTC Aire Humitat Pressió Vel. Dir. Vel. Max Dir. Intent. màx 5 min.
00:05 18.4 69.0 1015.4 0.0 WSW 0.0 0.0
00:10 18.5 70.0 1015.5 0.0 WSW 0.0 0.0
00:15 18.7 69.0 1015.5 0.0 WSW 0.0 0.0
00:20 18.8 69.0 1015.5 0.0 WSW 0.0 0.0
00:25 18.9 68.0 1015.4 0.0 WSW 0.0 0.0
00:30 18.9 68.0 1015.4 6.4 ENE 8.0 0.0
00:35 19.2 67.0 1015.5 4.8 ENE 8.0 0.0
00:40 19.3 66.0 1015.6 1.6 ENE 8.0 0.0
00:45 19.4 66.0 1015.6 1.6 ENE 6.4 0.0
00:50 19.2 66.0 1015.5 0.0 ENE 4.8 0.0
00:55 18.9 66.0 1015.5 0.0 ENE 0.0 0.0
01:00 18.6 66.0 1015.4 1.6 N 1.6 0.0
01:05 18.3 67.0 1015.3 0.0 N 1.6 0.0
01:10 18.3 68.0 1015.3 0.0 NNE 1.6 0.0
01:15 18.3 68.0 1015.3 0.0 NNE 0.0 0.0
01:20 18.2 68.0 1015.4 0.0 NNE 0.0 0.0
01:25 18.1 68.0 1015.4 0.0 NNE 0.0 0.0
01:30 17.9 69.0 1015.3 0.0 NNE 0.0 0.0
01:35 17.7 69.0 1015.4 0.0 NNE 0.0 0.0
01:40 17.6 70.0 1015.3 0.0 NNE 0.0 0.0
01:45 17.4 70.0 1015.3 0.0 NNE 0.0 0.0
01:50 17.3 70.0 1015.3 0.0 NNE 0.0 0.0
01:55 17.2 71.0 1015.2 0.0 NNE 0.0 0.0
02:00 17.3 71.0 1015.2 0.0 NNE 0.0 0.0
02:05 17.2 72.0 1015.3 0.0 N 0.0 0.0
02:10 17.3 72.0 1015.3 0.0 N 0.0 0.0
02:15 17.3 72.0 1015.2 0.0 N 0.0 0.0
02:20 17.4 72.0 1015.2 0.0 NE 0.0 0.0
02:25 17.5 72.0 1015.3 0.0 NE 0.0 0.0
02:30 17.5 71.0 1015.3 0.0 NE 0.0 0.0
02:35 17.4 71.0 1015.3 0.0 NNE 0.0 0.0
02:40 17.4 71.0 1015.3 4.8 NNE 4.8 0.0
02:45 17.4 71.0 1015.3 4.8 NNE 6.4 0.0
02:50 17.4 71.0 1015.3 4.8 NNE 6.4 0.0
02:55 17.4 71.0 1015.1 0.0 ENE 6.4 0.0
03:00 17.4 71.0 1015.2 0.0 SSE 4.8 0.0
03:05 17.3 71.0 1015.2 0.0 SSE 3.2 0.0
03:10 17.3 71.0 1015.2 0.0 SE 0.0 0.0
03:15 17.1 71.0 1015.2 0.0 SE 0.0 0.0
03:20 17.0 71.0 1015.3 0.0 SW 0.0 0.0
03:25 16.8 72.0 1015.3 0.0 SW 0.0 0.0
03:30 16.7 72.0 1015.4 0.0 SW 0.0 0.0
03:35 16.5 72.0 1015.3 0.0 S 0.0 0.0
03:40 16.7 73.0 1015.3 0.0 SSE 0.0 0.0
03:45 16.8 73.0 1015.3 0.0 E 0.0 0.0
03:50 16.7 73.0 1015.3 0.0 ENE 0.0 0.0
03:55 16.7 73.0 1015.2 1.6 ENE 4.8 0.0
04:00 16.7 73.0 1015.3 0.0 ESE 4.8 0.0
Màxima 19.4 73.0 1015.6 6.4 ENE 8.0 0.0
Mínima 16.5 66.0 1015.1
Total 0.0